KFHU

Sierra Vista Municipal-Libby AAF Airport

Fort Huachuca Sierra Vista, Arizona, USA
METAR KFHU 191458Z AUTO 16010KT 10SM CLR 04/00 A3033 RMK AO2 SLP258 T00361002 52008
Observed Flight Rules
Jan-19 @ 14:58 UTC (2 hours ago) Visual Flight Rules
Wind Visibility Clouds
160° at 10 knots 10 miles
  • Clear skies
Temperatures Readings
Current 4°C / 39°F
Dewpoint -0°C / 32°F
Humidity 75%
Altimeter 30.33" Hg
Pressure 1025.8 hPa
Elevation 1438
METAR KFHU 191458Z AUTO 16010KT 10SM CLR 04/00 A3033 RMK AO2 SLP258 T00361002 52008
Observed Flight Rules
Jan-19 @ 14:58 UTC
(2 hours ago)
VFR
Wind Visibility
160° at 10 knots 10 miles
Clouds
  • Clear skies
Temperature Dewpoint
4°C / 39°F -0°C / 32°F
Humidity Altimeter Pressure
75% 30.33" Hg 1025.8 hPa